sensor_id;sensor_type;location;lat;lon;timestamp;temperature;humidity
32811;DHT22;65470;47.324;8.548;2022-11-28T00:00:30;7.80;99.90
32811;DHT22;65470;47.324;8.548;2022-11-28T00:02:56;7.80;99.90
32811;DHT22;65470;47.324;8.548;2022-11-28T00:05:21;7.80;99.90
32811;DHT22;65470;47.324;8.548;2022-11-28T00:07:47;7.80;99.90
32811;DHT22;65470;47.324;8.548;2022-11-28T00:10:12;7.80;99.90
32811;DHT22;65470;47.324;8.548;2022-11-28T00:12:38;7.80;99.90
32811;DHT22;65470;47.324;8.548;2022-11-28T00:15:05;7.80;99.90
32811;DHT22;65470;47.324;8.548;2022-11-28T00:17:31;7.80;99.90
32811;DHT22;65470;47.324;8.548;2022-11-28T00:19:57;7.70;99.90
32811;DHT22;65470;47.324;8.548;2022-11-28T00:22:23;7.70;99.90
32811;DHT22;65470;47.324;8.548;2022-11-28T00:24:49;7.70;99.90
32811;DHT22;65470;47.324;8.548;2022-11-28T00:27:14;7.80;99.90
32811;DHT22;65470;47.324;8.548;2022-11-28T00:29:40;7.70;99.90
32811;DHT22;65470;47.324;8.548;2022-11-28T00:32:05;7.70;99.90
32811;DHT22;65470;47.324;8.548;2022-11-28T00:34:31;7.60;99.90
32811;DHT22;65470;47.324;8.548;2022-11-28T00:36:57;7.60;99.90
32811;DHT22;65470;47.324;8.548;2022-11-28T00:39:22;7.60;99.90
32811;DHT22;65470;47.324;8.548;2022-11-28T00:41:48;7.60;99.90
32811;DHT22;65470;47.324;8.548;2022-11-28T00:44:14;7.60;99.90
32811;DHT22;65470;47.324;8.548;2022-11-28T00:46:40;7.60;99.90
32811;DHT22;65470;47.324;8.548;2022-11-28T00:49:06;7.50;99.90
32811;DHT22;65470;47.324;8.548;2022-11-28T00:51:33;7.50;99.90
32811;DHT22;65470;47.324;8.548;2022-11-28T00:54:00;7.40;99.90
32811;DHT22;65470;47.324;8.548;2022-11-28T00:56:30;7.40;99.90
32811;DHT22;65470;47.324;8.548;2022-11-28T00:58:57;7.40;99.90
32811;DHT22;65470;47.324;8.548;2022-11-28T01:01:40;7.40;99.90
32811;DHT22;65470;47.324;8.548;2022-11-28T01:04:08;7.40;99.90
32811;DHT22;65470;47.324;8.548;2022-11-28T01:06:37;7.40;99.90
32811;DHT22;65470;47.324;8.548;2022-11-28T01:09:07;7.30;99.90
32811;DHT22;65470;47.324;8.548;2022-11-28T01:11:33;7.30;99.90
32811;DHT22;65470;47.324;8.548;2022-11-28T01:14:00;7.30;99.90
32811;DHT22;65470;47.324;8.548;2022-11-28T01:16:27;7.30;99.90
32811;DHT22;65470;47.324;8.548;2022-11-28T01:18:52;7.30;99.90
32811;DHT22;65470;47.324;8.548;2022-11-28T01:21:18;7.20;99.90
32811;DHT22;65470;47.324;8.548;2022-11-28T01:23:44;7.20;99.90
32811;DHT22;65470;47.324;8.548;2022-11-28T01:26:15;7.30;99.90
32811;DHT22;65470;47.324;8.548;2022-11-28T01:28:41;7.20;99.90
32811;DHT22;65470;47.324;8.548;2022-11-28T01:31:08;7.20;99.90
32811;DHT22;65470;47.324;8.548;2022-11-28T01:33:34;7.20;99.90
32811;DHT22;65470;47.324;8.548;2022-11-28T01:36:00;7.20;99.90
32811;DHT22;65470;47.324;8.548;2022-11-28T01:38:26;7.30;99.90
32811;DHT22;65470;47.324;8.548;2022-11-28T01:40:53;7.30;99.90
32811;DHT22;65470;47.324;8.548;2022-11-28T01:43:19;7.30;99.90
32811;DHT22;65470;47.324;8.548;2022-11-28T01:45:45;7.30;99.90
32811;DHT22;65470;47.324;8.548;2022-11-28T01:48:14;7.30;99.90
32811;DHT22;65470;47.324;8.548;2022-11-28T01:50:42;7.30;99.90
32811;DHT22;65470;47.324;8.548;2022-11-28T01:53:11;7.20;99.90
32811;DHT22;65470;47.324;8.548;2022-11-28T01:55:47;7.30;99.90
32811;DHT22;65470;47.324;8.548;2022-11-28T01:58:14;7.30;99.90
32811;DHT22;65470;47.324;8.548;2022-11-28T02:00:40;7.30;99.90
32811;DHT22;65470;47.324;8.548;2022-11-28T02:03:18;7.20;99.90
32811;DHT22;65470;47.324;8.548;2022-11-28T02:05:46;7.20;99.90
32811;DHT22;65470;47.324;8.548;2022-11-28T02:08:13;7.20;99.90
32811;DHT22;65470;47.324;8.548;2022-11-28T02:19:02;7.40;99.90
32811;DHT22;65470;47.324;8.548;2022-11-28T02:21:41;7.40;99.90
32811;DHT22;65470;47.324;8.548;2022-11-28T02:25:08;7.40;99.90
32811;DHT22;65470;47.324;8.548;2022-11-28T02:27:46;7.40;99.90
32811;DHT22;65470;47.324;8.548;2022-11-28T02:33:13;7.50;99.90
32811;DHT22;65470;47.324;8.548;2022-11-28T02:35:49;7.50;99.90
32811;DHT22;65470;47.324;8.548;2022-11-28T02:38:25;7.60;99.90
32811;DHT22;65470;47.324;8.548;2022-11-28T02:43:33;7.60;99.90
32811;DHT22;65470;47.324;8.548;2022-11-28T02:49:04;7.70;99.90
32811;DHT22;65470;47.324;8.548;2022-11-28T02:54:01;7.60;99.90
32811;DHT22;65470;47.324;8.548;2022-11-28T02:56:28;7.70;99.90
32811;DHT22;65470;47.324;8.548;2022-11-28T02:58:53;7.70;99.90
32811;DHT22;65470;47.324;8.548;2022-11-28T03:07:39;7.70;99.90
32811;DHT22;65470;47.324;8.548;2022-11-28T03:10:18;7.70;99.90
32811;DHT22;65470;47.324;8.548;2022-11-28T03:12:55;7.60;99.90
32811;DHT22;65470;47.324;8.548;2022-11-28T03:15:48;7.60;99.90
32811;DHT22;65470;47.324;8.548;2022-11-28T03:18:19;7.60;99.90
32811;DHT22;65470;47.324;8.548;2022-11-28T03:20:59;7.60;99.90
32811;DHT22;65470;47.324;8.548;2022-11-28T03:25:57;7.60;99.90
32811;DHT22;65470;47.324;8.548;2022-11-28T03:28:30;7.70;99.90
32811;DHT22;65470;47.324;8.548;2022-11-28T03:33:32;7.80;99.90
32811;DHT22;65470;47.324;8.548;2022-11-28T03:36:24;7.90;99.90
32811;DHT22;65470;47.324;8.548;2022-11-28T03:38:55;7.90;99.90
32811;DHT22;65470;47.324;8.548;2022-11-28T03:41:48;8.00;99.90
32811;DHT22;65470;47.324;8.548;2022-11-28T03:44:28;8.00;99.90
32811;DHT22;65470;47.324;8.548;2022-11-28T03:46:56;8.00;99.90
32811;DHT22;65470;47.324;8.548;2022-11-28T03:49:30;8.00;99.90
32811;DHT22;65470;47.324;8.548;2022-11-28T03:52:04;8.00;99.90
32811;DHT22;65470;47.324;8.548;2022-11-28T03:54:45;8.10;99.90
32811;DHT22;65470;47.324;8.548;2022-11-28T03:57:36;8.00;99.90
32811;DHT22;65470;47.324;8.548;2022-11-28T04:00:08;8.00;99.90
32811;DHT22;65470;47.324;8.548;2022-11-28T04:02:56;8.00;99.90
32811;DHT22;65470;47.324;8.548;2022-11-28T04:08:16;8.00;99.90
32811;DHT22;65470;47.324;8.548;2022-11-28T04:10:55;8.00;99.90
32811;DHT22;65470;47.324;8.548;2022-11-28T04:13:31;7.90;99.90
32811;DHT22;65470;47.324;8.548;2022-11-28T04:18:55;7.80;99.90
32811;DHT22;65470;47.324;8.548;2022-11-28T04:24:17;7.80;99.90
32811;DHT22;65470;47.324;8.548;2022-11-28T04:26:49;7.80;99.90
32811;DHT22;65470;47.324;8.548;2022-11-28T04:29:17;7.80;99.90
32811;DHT22;65470;47.324;8.548;2022-11-28T04:31:46;7.80;99.90
32811;DHT22;65470;47.324;8.548;2022-11-28T04:34:17;7.80;99.90
32811;DHT22;65470;47.324;8.548;2022-11-28T04:36:44;7.80;99.90
32811;DHT22;65470;47.324;8.548;2022-11-28T04:39:22;7.80;99.90
32811;DHT22;65470;47.324;8.548;2022-11-28T04:44:44;7.90;99.90
32811;DHT22;65470;47.324;8.548;2022-11-28T04:47:12;7.90;99.90
32811;DHT22;65470;47.324;8.548;2022-11-28T04:49:38;8.00;99.90
32811;DHT22;65470;47.324;8.548;2022-11-28T04:57:51;8.00;99.90
32811;DHT22;65470;47.324;8.548;2022-11-28T05:00:19;8.10;99.90
32811;DHT22;65470;47.324;8.548;2022-11-28T05:02:49;8.10;99.90
32811;DHT22;65470;47.324;8.548;2022-11-28T05:05:19;8.10;99.90
32811;DHT22;65470;47.324;8.548;2022-11-28T05:07:45;8.10;99.90
32811;DHT22;65470;47.324;8.548;2022-11-28T05:10:12;8.00;99.90
32811;DHT22;65470;47.324;8.548;2022-11-28T05:12:39;8.10;99.90
32811;DHT22;65470;47.324;8.548;2022-11-28T05:15:06;8.10;99.90
32811;DHT22;65470;47.324;8.548;2022-11-28T05:17:32;8.10;99.90
32811;DHT22;65470;47.324;8.548;2022-11-28T05:19:58;8.20;99.90
32811;DHT22;65470;47.324;8.548;2022-11-28T05:22:23;8.30;99.90
32811;DHT22;65470;47.324;8.548;2022-11-28T05:24:49;8.30;99.90
32811;DHT22;65470;47.324;8.548;2022-11-28T05:27:15;8.30;99.90
32811;DHT22;65470;47.324;8.548;2022-11-28T05:29:40;8.40;99.90
32811;DHT22;65470;47.324;8.548;2022-11-28T05:32:09;8.40;99.90
32811;DHT22;65470;47.324;8.548;2022-11-28T05:34:35;8.50;99.90
32811;DHT22;65470;47.324;8.548;2022-11-28T05:37:01;8.50;99.90
32811;DHT22;65470;47.324;8.548;2022-11-28T05:39:26;8.50;99.90
32811;DHT22;65470;47.324;8.548;2022-11-28T05:41:54;8.50;99.90
32811;DHT22;65470;47.324;8.548;2022-11-28T05:44:20;8.50;99.90
32811;DHT22;65470;47.324;8.548;2022-11-28T05:46:45;8.50;99.90
32811;DHT22;65470;47.324;8.548;2022-11-28T05:49:11;8.50;99.90
32811;DHT22;65470;47.324;8.548;2022-11-28T05:51:37;8.60;99.90
32811;DHT22;65470;47.324;8.548;2022-11-28T05:54:02;8.60;99.90
32811;DHT22;65470;47.324;8.548;2022-11-28T05:56:28;8.60;99.90
32811;DHT22;65470;47.324;8.548;2022-11-28T05:58:54;8.50;99.90
32811;DHT22;65470;47.324;8.548;2022-11-28T06:01:25;8.50;99.90
32811;DHT22;65470;47.324;8.548;2022-11-28T06:03:51;8.40;99.90
32811;DHT22;65470;47.324;8.548;2022-11-28T06:06:23;8.40;99.90
32811;DHT22;65470;47.324;8.548;2022-11-28T06:08:50;8.40;99.90
32811;DHT22;65470;47.324;8.548;2022-11-28T06:11:17;8.30;99.90
32811;DHT22;65470;47.324;8.548;2022-11-28T06:13:44;8.20;99.90
32811;DHT22;65470;47.324;8.548;2022-11-28T06:16:13;8.20;99.90
32811;DHT22;65470;47.324;8.548;2022-11-28T06:18:39;8.20;99.90
32811;DHT22;65470;47.324;8.548;2022-11-28T06:21:07;8.10;99.90
32811;DHT22;65470;47.324;8.548;2022-11-28T06:23:33;8.10;99.90
32811;DHT22;65470;47.324;8.548;2022-11-28T06:26:04;8.20;99.90
32811;DHT22;65470;47.324;8.548;2022-11-28T06:28:30;8.20;99.90
32811;DHT22;65470;47.324;8.548;2022-11-28T06:30:56;8.10;99.90
32811;DHT22;65470;47.324;8.548;2022-11-28T06:33:21;8.10;99.90
32811;DHT22;65470;47.324;8.548;2022-11-28T06:35:47;8.10;99.90
32811;DHT22;65470;47.324;8.548;2022-11-28T06:38:13;8.20;99.90
32811;DHT22;65470;47.324;8.548;2022-11-28T06:40:38;8.10;99.90
32811;DHT22;65470;47.324;8.548;2022-11-28T06:43:04;8.10;99.90
32811;DHT22;65470;47.324;8.548;2022-11-28T06:45:33;8.00;99.90
32811;DHT22;65470;47.324;8.548;2022-11-28T06:47:59;8.00;99.90
32811;DHT22;65470;47.324;8.548;2022-11-28T06:50:25;7.90;99.90
32811;DHT22;65470;47.324;8.548;2022-11-28T06:52:53;7.90;99.90
32811;DHT22;65470;47.324;8.548;2022-11-28T06:55:19;7.90;99.90
32811;DHT22;65470;47.324;8.548;2022-11-28T06:57:44;7.80;99.90
32811;DHT22;65470;47.324;8.548;2022-11-28T07:00:10;7.90;99.90
32811;DHT22;65470;47.324;8.548;2022-11-28T07:02:36;7.80;99.90
32811;DHT22;65470;47.324;8.548;2022-11-28T07:05:02;7.90;99.90
32811;DHT22;65470;47.324;8.548;2022-11-28T07:07:28;7.90;99.90
32811;DHT22;65470;47.324;8.548;2022-11-28T07:09:53;7.90;99.90
32811;DHT22;65470;47.324;8.548;2022-11-28T07:12:19;7.90;99.90
32811;DHT22;65470;47.324;8.548;2022-11-28T07:14:44;8.00;99.90
32811;DHT22;65470;47.324;8.548;2022-11-28T07:17:10;8.00;99.90
32811;DHT22;65470;47.324;8.548;2022-11-28T07:19:36;8.00;99.90
32811;DHT22;65470;47.324;8.548;2022-11-28T07:22:03;8.00;99.90
32811;DHT22;65470;47.324;8.548;2022-11-28T07:24:28;8.00;99.90
32811;DHT22;65470;47.324;8.548;2022-11-28T07:26:54;8.00;99.90
32811;DHT22;65470;47.324;8.548;2022-11-28T07:29:21;8.00;99.90
32811;DHT22;65470;47.324;8.548;2022-11-28T07:31:49;8.10;99.90
32811;DHT22;65470;47.324;8.548;2022-11-28T07:34:15;8.10;99.90
32811;DHT22;65470;47.324;8.548;2022-11-28T07:36:41;8.20;99.90
32811;DHT22;65470;47.324;8.548;2022-11-28T07:39:15;8.40;99.90
32811;DHT22;65470;47.324;8.548;2022-11-28T07:41:40;8.50;99.90
32811;DHT22;65470;47.324;8.548;2022-11-28T07:44:06;8.60;99.90
32811;DHT22;65470;47.324;8.548;2022-11-28T07:46:32;8.60;99.90
32811;DHT22;65470;47.324;8.548;2022-11-28T07:48:58;8.70;99.90
32811;DHT22;65470;47.324;8.548;2022-11-28T07:51:27;8.70;99.90
32811;DHT22;65470;47.324;8.548;2022-11-28T07:53:53;8.80;99.90
32811;DHT22;65470;47.324;8.548;2022-11-28T07:56:21;8.90;99.90
32811;DHT22;65470;47.324;8.548;2022-11-28T07:58:48;9.00;99.90
32811;DHT22;65470;47.324;8.548;2022-11-28T08:01:22;9.10;99.90
32811;DHT22;65470;47.324;8.548;2022-11-28T08:03:48;9.20;99.90
32811;DHT22;65470;47.324;8.548;2022-11-28T08:06:15;9.20;99.90
32811;DHT22;65470;47.324;8.548;2022-11-28T08:08:41;9.30;99.90
32811;DHT22;65470;47.324;8.548;2022-11-28T08:11:08;9.30;99.90
32811;DHT22;65470;47.324;8.548;2022-11-28T08:13:35;9.40;99.90
32811;DHT22;65470;47.324;8.548;2022-11-28T08:16:06;9.60;99.90
32811;DHT22;65470;47.324;8.548;2022-11-28T08:18:36;9.70;99.90
32811;DHT22;65470;47.324;8.548;2022-11-28T08:21:03;9.90;99.90
32811;DHT22;65470;47.324;8.548;2022-11-28T08:23:29;9.90;99.90
32811;DHT22;65470;47.324;8.548;2022-11-28T08:25:55;10.10;99.90
32811;DHT22;65470;47.324;8.548;2022-11-28T08:28:21;10.10;99.90
32811;DHT22;65470;47.324;8.548;2022-11-28T08:30:46;10.00;99.90
32811;DHT22;65470;47.324;8.548;2022-11-28T08:33:12;9.90;99.90
32811;DHT22;65470;47.324;8.548;2022-11-28T08:35:38;9.90;99.90
32811;DHT22;65470;47.324;8.548;2022-11-28T08:38:04;9.90;99.90
32811;DHT22;65470;47.324;8.548;2022-11-28T08:40:30;10.00;99.90
32811;DHT22;65470;47.324;8.548;2022-11-28T08:42:57;9.90;99.90
32811;DHT22;65470;47.324;8.548;2022-11-28T08:45:23;9.80;99.90
32811;DHT22;65470;47.324;8.548;2022-11-28T08:47:48;9.80;99.90
32811;DHT22;65470;47.324;8.548;2022-11-28T08:50:14;9.80;99.90
32811;DHT22;65470;47.324;8.548;2022-11-28T08:52:40;9.90;99.90
32811;DHT22;65470;47.324;8.548;2022-11-28T08:55:06;9.90;99.90
32811;DHT22;65470;47.324;8.548;2022-11-28T08:57:31;9.90;99.90
32811;DHT22;65470;47.324;8.548;2022-11-28T08:59:57;9.80;99.90
32811;DHT22;65470;47.324;8.548;2022-11-28T09:02:23;9.90;99.90
32811;DHT22;65470;47.324;8.548;2022-11-28T09:04:48;10.00;99.90
32811;DHT22;65470;47.324;8.548;2022-11-28T09:07:14;10.00;99.90
32811;DHT22;65470;47.324;8.548;2022-11-28T09:09:40;10.00;99.90
32811;DHT22;65470;47.324;8.548;2022-11-28T09:12:05;10.10;99.90
32811;DHT22;65470;47.324;8.548;2022-11-28T09:14:31;10.10;99.90
32811;DHT22;65470;47.324;8.548;2022-11-28T09:16:57;10.20;99.90
32811;DHT22;65470;47.324;8.548;2022-11-28T09:19:23;10.10;99.90
32811;DHT22;65470;47.324;8.548;2022-11-28T09:21:48;10.20;99.90
32811;DHT22;65470;47.324;8.548;2022-11-28T09:24:14;10.10;99.90
32811;DHT22;65470;47.324;8.548;2022-11-28T09:26:40;10.20;99.90
32811;DHT22;65470;47.324;8.548;2022-11-28T09:29:06;10.30;99.90
32811;DHT22;65470;47.324;8.548;2022-11-28T09:31:32;10.30;99.90
32811;DHT22;65470;47.324;8.548;2022-11-28T09:33:57;10.40;99.90
32811;DHT22;65470;47.324;8.548;2022-11-28T09:36:23;10.40;99.90
32811;DHT22;65470;47.324;8.548;2022-11-28T09:38:50;10.30;99.90
32811;DHT22;65470;47.324;8.548;2022-11-28T09:44:05;10.30;99.90
32811;DHT22;65470;47.324;8.548;2022-11-28T09:46:33;10.20;99.90
32811;DHT22;65470;47.324;8.548;2022-11-28T09:49:03;10.10;99.90
32811;DHT22;65470;47.324;8.548;2022-11-28T09:57:29;10.20;99.90
32811;DHT22;65470;47.324;8.548;2022-11-28T09:59:56;10.30;99.90
32811;DHT22;65470;47.324;8.548;2022-11-28T10:02:46;10.40;99.90
32811;DHT22;65470;47.324;8.548;2022-11-28T10:13:18;11.00;99.90
32811;DHT22;65470;47.324;8.548;2022-11-28T10:21:01;10.80;99.90
32811;DHT22;65470;47.324;8.548;2022-11-28T10:23:42;11.00;99.90
32811;DHT22;65470;47.324;8.548;2022-11-28T10:26:29;11.20;99.90
32811;DHT22;65470;47.324;8.548;2022-11-28T10:28:59;11.20;99.90
32811;DHT22;65470;47.324;8.548;2022-11-28T10:31:27;11.20;99.90
32811;DHT22;65470;47.324;8.548;2022-11-28T10:34:21;11.20;99.90
32811;DHT22;65470;47.324;8.548;2022-11-28T10:37:08;11.30;99.90
32811;DHT22;65470;47.324;8.548;2022-11-28T10:39:36;11.30;99.90
32811;DHT22;65470;47.324;8.548;2022-11-28T10:42:14;11.40;99.90
32811;DHT22;65470;47.324;8.548;2022-11-28T10:50:27;12.10;99.90
32811;DHT22;65470;47.324;8.548;2022-11-28T10:53:00;12.10;99.90
32811;DHT22;65470;47.324;8.548;2022-11-28T10:58:30;12.30;99.90
32811;DHT22;65470;47.324;8.548;2022-11-28T11:00:57;12.30;99.90
32811;DHT22;65470;47.324;8.548;2022-11-28T11:03:30;12.30;99.30
32811;DHT22;65470;47.324;8.548;2022-11-28T11:05:57;12.70;98.60
32811;DHT22;65470;47.324;8.548;2022-11-28T11:08:25;12.80;96.10
32811;DHT22;65470;47.324;8.548;2022-11-28T11:10:52;12.90;95.90
32811;DHT22;65470;47.324;8.548;2022-11-28T11:13:25;13.30;93.80
32811;DHT22;65470;47.324;8.548;2022-11-28T11:16:07;13.40;92.70
32811;DHT22;65470;47.324;8.548;2022-11-28T11:21:23;13.60;89.00
32811;DHT22;65470;47.324;8.548;2022-11-28T11:24:15;13.60;86.80
32811;DHT22;65470;47.324;8.548;2022-11-28T11:26:46;13.40;89.00
32811;DHT22;65470;47.324;8.548;2022-11-28T11:31:52;13.70;83.40
32811;DHT22;65470;47.324;8.548;2022-11-28T11:34:20;13.80;85.20
32811;DHT22;65470;47.324;8.548;2022-11-28T11:36:47;14.00;85.30
32811;DHT22;65470;47.324;8.548;2022-11-28T11:41:48;14.10;82.90
32811;DHT22;65470;47.324;8.548;2022-11-28T11:46:54;14.30;83.40
32811;DHT22;65470;47.324;8.548;2022-11-28T11:49:36;14.30;84.40
32811;DHT22;65470;47.324;8.548;2022-11-28T11:54:57;14.20;86.20
32811;DHT22;65470;47.324;8.548;2022-11-28T11:57:34;14.20;85.90
32811;DHT22;65470;47.324;8.548;2022-11-28T12:02:48;14.20;84.50
32811;DHT22;65470;47.324;8.548;2022-11-28T12:05:22;14.30;84.40
32811;DHT22;65470;47.324;8.548;2022-11-28T12:08:44;14.20;84.70
32811;DHT22;65470;47.324;8.548;2022-11-28T12:11:13;14.20;83.50
32811;DHT22;65470;47.324;8.548;2022-11-28T12:13:40;14.00;84.40
32811;DHT22;65470;47.324;8.548;2022-11-28T12:19:03;13.90;84.10
32811;DHT22;65470;47.324;8.548;2022-11-28T12:24:14;13.60;85.80
32811;DHT22;65470;47.324;8.548;2022-11-28T12:32:12;13.30;88.60
32811;DHT22;65470;47.324;8.548;2022-11-28T12:39:41;13.40;90.30
32811;DHT22;65470;47.324;8.548;2022-11-28T12:45:18;13.40;90.60
32811;DHT22;65470;47.324;8.548;2022-11-28T12:50:37;13.30;91.10
32811;DHT22;65470;47.324;8.548;2022-11-28T13:07:16;13.30;92.30
32811;DHT22;65470;47.324;8.548;2022-11-28T13:12:47;13.10;93.70
32811;DHT22;65470;47.324;8.548;2022-11-28T13:35:00;13.10;89.00
32811;DHT22;65470;47.324;8.548;2022-11-28T13:37:32;13.10;89.20
32811;DHT22;65470;47.324;8.548;2022-11-28T13:47:41;13.10;88.30
32811;DHT22;65470;47.324;8.548;2022-11-28T13:55:42;13.00;88.80
32811;DHT22;65470;47.324;8.548;2022-11-28T13:58:15;13.00;89.30
32811;DHT22;65470;47.324;8.548;2022-11-28T14:00:43;13.00;89.60
32811;DHT22;65470;47.324;8.548;2022-11-28T14:03:22;13.10;89.20
32811;DHT22;65470;47.324;8.548;2022-11-28T14:05:53;13.00;88.40
32811;DHT22;65470;47.324;8.548;2022-11-28T14:08:32;13.00;89.80
32811;DHT22;65470;47.324;8.548;2022-11-28T14:22:41;12.90;92.20
32811;DHT22;65470;47.324;8.548;2022-11-28T14:25:27;12.90;95.60
32811;DHT22;65470;47.324;8.548;2022-11-28T14:28:01;12.80;93.90
32811;DHT22;65470;47.324;8.548;2022-11-28T14:30:40;12.80;95.70
32811;DHT22;65470;47.324;8.548;2022-11-28T14:33:25;12.80;96.60
32811;DHT22;65470;47.324;8.548;2022-11-28T14:43:24;12.70;97.10
32811;DHT22;65470;47.324;8.548;2022-11-28T14:45:51;12.60;97.20
32811;DHT22;65470;47.324;8.548;2022-11-28T14:50:50;12.50;96.60
32811;DHT22;65470;47.324;8.548;2022-11-28T14:56:28;12.40;99.20
32811;DHT22;65470;47.324;8.548;2022-11-28T14:58:57;12.30;99.70
32811;DHT22;65470;47.324;8.548;2022-11-28T15:01:53;12.20;99.40
32811;DHT22;65470;47.324;8.548;2022-11-28T15:10:11;12.10;99.90
32811;DHT22;65470;47.324;8.548;2022-11-28T15:15:18;12.00;99.90
32811;DHT22;65470;47.324;8.548;2022-11-28T15:17:48;12.00;99.90
32811;DHT22;65470;47.324;8.548;2022-11-28T15:20:33;11.90;99.90
32811;DHT22;65470;47.324;8.548;2022-11-28T15:22:59;11.90;99.90
32811;DHT22;65470;47.324;8.548;2022-11-28T15:25:27;11.90;99.90
32811;DHT22;65470;47.324;8.548;2022-11-28T15:28:14;11.90;99.90
32811;DHT22;65470;47.324;8.548;2022-11-28T15:30:51;11.80;99.90
32811;DHT22;65470;47.324;8.548;2022-11-28T15:33:17;11.80;99.90
32811;DHT22;65470;47.324;8.548;2022-11-28T15:35:59;11.70;99.90
32811;DHT22;65470;47.324;8.548;2022-11-28T15:38:27;11.60;99.90
32811;DHT22;65470;47.324;8.548;2022-11-28T15:40:55;11.60;99.90
32811;DHT22;65470;47.324;8.548;2022-11-28T15:43:22;11.60;99.90
32811;DHT22;65470;47.324;8.548;2022-11-28T15:45:50;11.50;99.90
32811;DHT22;65470;47.324;8.548;2022-11-28T15:51:05;11.50;99.90
32811;DHT22;65470;47.324;8.548;2022-11-28T15:53:31;11.50;99.90
32811;DHT22;65470;47.324;8.548;2022-11-28T15:56:08;11.40;99.90
32811;DHT22;65470;47.324;8.548;2022-11-28T15:58:34;11.30;99.90
32811;DHT22;65470;47.324;8.548;2022-11-28T16:03:51;11.40;99.90
32811;DHT22;65470;47.324;8.548;2022-11-28T16:06:19;11.40;99.90
32811;DHT22;65470;47.324;8.548;2022-11-28T16:11:45;11.40;99.90
32811;DHT22;65470;47.324;8.548;2022-11-28T16:14:24;11.30;99.90
32811;DHT22;65470;47.324;8.548;2022-11-28T16:16:51;11.30;99.90
32811;DHT22;65470;47.324;8.548;2022-11-28T16:19:23;11.30;99.90
32811;DHT22;65470;47.324;8.548;2022-11-28T16:21:52;11.30;99.90
32811;DHT22;65470;47.324;8.548;2022-11-28T16:24:28;11.30;99.90
32811;DHT22;65470;47.324;8.548;2022-11-28T16:26:57;11.40;99.90
32811;DHT22;65470;47.324;8.548;2022-11-28T16:29:27;11.50;99.90
32811;DHT22;65470;47.324;8.548;2022-11-28T16:31:54;11.50;99.90
32811;DHT22;65470;47.324;8.548;2022-11-28T16:34:43;11.60;99.90
32811;DHT22;65470;47.324;8.548;2022-11-28T16:37:10;11.60;99.90
32811;DHT22;65470;47.324;8.548;2022-11-28T16:39:36;11.60;99.90
32811;DHT22;65470;47.324;8.548;2022-11-28T16:42:15;11.60;99.90
32811;DHT22;65470;47.324;8.548;2022-11-28T16:44:41;11.70;99.90
32811;DHT22;65470;47.324;8.548;2022-11-28T16:47:23;11.60;99.90
32811;DHT22;65470;47.324;8.548;2022-11-28T16:52:50;11.70;99.90
32811;DHT22;65470;47.324;8.548;2022-11-28T16:58:15;11.70;99.90
32811;DHT22;65470;47.324;8.548;2022-11-28T17:00:44;11.80;99.90
32811;DHT22;65470;47.324;8.548;2022-11-28T17:08:49;11.80;99.90
32811;DHT22;65470;47.324;8.548;2022-11-28T17:11:17;11.70;99.90
32811;DHT22;65470;47.324;8.548;2022-11-28T17:13:43;11.70;99.90
32811;DHT22;65470;47.324;8.548;2022-11-28T17:16:14;11.80;99.90
32811;DHT22;65470;47.324;8.548;2022-11-28T17:18:40;11.80;99.90
32811;DHT22;65470;47.324;8.548;2022-11-28T17:21:09;11.70;99.90
32811;DHT22;65470;47.324;8.548;2022-11-28T17:23:36;11.60;99.90
32811;DHT22;65470;47.324;8.548;2022-11-28T17:26:02;11.60;99.90
32811;DHT22;65470;47.324;8.548;2022-11-28T17:28:27;11.60;99.90
32811;DHT22;65470;47.324;8.548;2022-11-28T17:30:53;11.60;99.90
32811;DHT22;65470;47.324;8.548;2022-11-28T17:33:19;11.60;99.90
32811;DHT22;65470;47.324;8.548;2022-11-28T17:35:47;11.60;99.90
32811;DHT22;65470;47.324;8.548;2022-11-28T17:38:15;11.60;99.90
32811;DHT22;65470;47.324;8.548;2022-11-28T17:40:41;11.50;99.90
32811;DHT22;65470;47.324;8.548;2022-11-28T17:43:17;11.50;99.90
32811;DHT22;65470;47.324;8.548;2022-11-28T17:45:44;11.60;99.90
32811;DHT22;65470;47.324;8.548;2022-11-28T17:48:10;11.60;99.90
32811;DHT22;65470;47.324;8.548;2022-11-28T17:50:41;11.60;99.90
32811;DHT22;65470;47.324;8.548;2022-11-28T17:53:09;11.50;99.90
32811;DHT22;65470;47.324;8.548;2022-11-28T17:55:38;11.60;99.90
32811;DHT22;65470;47.324;8.548;2022-11-28T17:58:04;11.60;99.90
32811;DHT22;65470;47.324;8.548;2022-11-28T18:00:30;11.60;99.90
32811;DHT22;65470;47.324;8.548;2022-11-28T18:02:57;11.70;99.90
32811;DHT22;65470;47.324;8.548;2022-11-28T18:05:23;11.70;99.90
32811;DHT22;65470;47.324;8.548;2022-11-28T18:07:48;11.60;99.90
32811;DHT22;65470;47.324;8.548;2022-11-28T18:10:14;11.60;99.90
32811;DHT22;65470;47.324;8.548;2022-11-28T18:12:40;11.60;99.90
32811;DHT22;65470;47.324;8.548;2022-11-28T18:15:05;11.60;99.90
32811;DHT22;65470;47.324;8.548;2022-11-28T18:17:31;11.60;99.90
32811;DHT22;65470;47.324;8.548;2022-11-28T18:19:57;11.60;99.90
32811;DHT22;65470;47.324;8.548;2022-11-28T18:22:23;11.50;99.90
32811;DHT22;65470;47.324;8.548;2022-11-28T18:24:48;11.60;99.90
32811;DHT22;65470;47.324;8.548;2022-11-28T18:27:14;11.60;99.90
32811;DHT22;65470;47.324;8.548;2022-11-28T18:29:39;11.60;99.90
32811;DHT22;65470;47.324;8.548;2022-11-28T18:32:05;11.50;99.90
32811;DHT22;65470;47.324;8.548;2022-11-28T18:34:31;11.60;99.90
32811;DHT22;65470;47.324;8.548;2022-11-28T18:36:57;11.50;99.90
32811;DHT22;65470;47.324;8.548;2022-11-28T18:39:25;11.50;99.90
32811;DHT22;65470;47.324;8.548;2022-11-28T18:41:51;11.60;99.90
32811;DHT22;65470;47.324;8.548;2022-11-28T18:44:17;11.50;99.90
32811;DHT22;65470;47.324;8.548;2022-11-28T18:46:43;11.40;99.90
32811;DHT22;65470;47.324;8.548;2022-11-28T18:49:11;11.20;99.90
32811;DHT22;65470;47.324;8.548;2022-11-28T18:51:37;11.30;99.90
32811;DHT22;65470;47.324;8.548;2022-11-28T18:54:04;11.30;99.90
32811;DHT22;65470;47.324;8.548;2022-11-28T18:56:30;11.30;99.90
32811;DHT22;65470;47.324;8.548;2022-11-28T18:58:56;11.30;99.90
32811;DHT22;65470;47.324;8.548;2022-11-28T19:01:28;11.30;99.90
32811;DHT22;65470;47.324;8.548;2022-11-28T19:03:57;11.20;99.90
32811;DHT22;65470;47.324;8.548;2022-11-28T19:06:24;11.20;99.90
32811;DHT22;65470;47.324;8.548;2022-11-28T19:08:54;11.20;99.90
32811;DHT22;65470;47.324;8.548;2022-11-28T19:11:20;11.20;99.90
32811;DHT22;65470;47.324;8.548;2022-11-28T19:13:47;11.30;99.90
32811;DHT22;65470;47.324;8.548;2022-11-28T19:16:15;11.30;99.90
32811;DHT22;65470;47.324;8.548;2022-11-28T19:18:41;11.20;99.90
32811;DHT22;65470;47.324;8.548;2022-11-28T19:21:10;11.10;99.90
32811;DHT22;65470;47.324;8.548;2022-11-28T19:23:36;11.10;99.90
32811;DHT22;65470;47.324;8.548;2022-11-28T19:26:04;11.00;99.90
32811;DHT22;65470;47.324;8.548;2022-11-28T19:28:30;11.00;99.90
32811;DHT22;65470;47.324;8.548;2022-11-28T19:31:06;11.00;99.90